Time;durP1;ratioP1;P1;durP2;ratioP2;P2;SDS_P1;SDS_P2;PMS_P1;PMS_P2;Temp;Humidity;BMP_temperature;BMP_pressure;BME280_temperature;BME280_humidity;BME280_pressure;Samples;Min_cycle;Max_cycle;Signal;HPM_P1;HPM_P2
2021/03/22 00:00:30;;;;;;;12.73;0.80;;;2.90;99.90;;;;;;5025089;28;20030;-80
2021/03/22 00:02:56;;;;;;;6.45;0.40;;;2.90;99.90;;;;;;5008888;28;20065;-80
2021/03/22 00:05:22;;;;;;;14.45;0.77;;;2.80;99.90;;;;;;5025043;28;20029;-81
2021/03/22 00:07:53;;;;;;;13.10;1.17;;;2.80;99.90;;;;;;5025129;28;20026;-80
2021/03/22 00:10:21;;;;;;;13.10;1.30;;;2.80;99.90;;;;;;5025096;28;20030;-80
2021/03/22 00:12:48;;;;;;;16.55;0.82;;;2.80;99.90;;;;;;5025436;28;20037;-80
2021/03/22 00:15:16;;;;;;;10.35;0.90;;;2.70;99.90;;;;;;5008686;28;20030;-81
2021/03/22 00:17:43;;;;;;;7.47;0.50;;;2.70;99.90;;;;;;5008487;28;20045;-80
2021/03/22 00:20:11;;;;;;;9.95;0.70;;;2.70;99.90;;;;;;5041474;28;20486;-81
2021/03/22 00:22:36;;;;;;;12.65;0.90;;;2.70;99.90;;;;;;5041525;28;20063;-80
2021/03/22 00:25:05;;;;;;;10.52;0.68;;;2.70;99.90;;;;;;5025103;28;20030;-79
2021/03/22 00:27:32;;;;;;;6.32;0.55;;;2.70;99.90;;;;;;5041023;28;20044;-81
2021/03/22 00:29:57;;;;;;;12.77;0.60;;;2.60;99.90;;;;;;5041217;28;20026;-80
2021/03/22 00:32:23;;;;;;;12.18;0.50;;;2.50;99.90;;;;;;5041316;28;20040;-80
2021/03/22 00:34:49;;;;;;;6.78;0.95;;;2.50;99.90;;;;;;5041223;28;20038;-80
2021/03/22 00:37:14;;;;;;;7.68;0.50;;;2.40;99.90;;;;;;5024774;28;20069;-82
2021/03/22 00:39:40;;;;;;;5.72;0.40;;;2.30;99.90;;;;;;5040958;28;20030;-80
2021/03/22 00:42:07;;;;;;;11.75;1.23;;;2.40;99.90;;;;;;5041667;28;20033;-80
2021/03/22 00:44:34;;;;;;;15.43;0.95;;;2.40;99.90;;;;;;5040923;28;20037;-80
2021/03/22 00:46:59;;;;;;;9.95;0.80;;;2.40;99.90;;;;;;5040973;28;20034;-80
2021/03/22 00:49:25;;;;;;;19.15;1.10;;;2.40;99.90;;;;;;5024717;28;20045;-80
2021/03/22 00:51:51;;;;;;;8.38;0.80;;;2.40;99.90;;;;;;5028515;28;20080;-80
2021/03/22 00:54:16;;;;;;;10.40;1.02;;;2.40;99.90;;;;;;5024634;28;20026;-80
2021/03/22 00:56:43;;;;;;;10.48;0.82;;;2.30;99.90;;;;;;5025987;28;20041;-80
2021/03/22 00:59:09;;;;;;;13.32;0.85;;;2.50;99.90;;;;;;5024529;28;20061;-80
2021/03/22 01:01:36;;;;;;;14.18;1.75;;;2.40;99.90;;;;;;5040984;28;20041;-80
2021/03/22 01:04:02;;;;;;;8.77;0.75;;;2.40;99.90;;;;;;5041046;28;20053;-80
2021/03/22 01:06:28;;;;;;;11.50;0.98;;;2.60;99.90;;;;;;5024146;28;20061;-80
2021/03/22 01:08:53;;;;;;;11.45;1.23;;;2.60;99.90;;;;;;5024639;28;20117;-80
2021/03/22 01:11:21;;;;;;;11.18;0.90;;;2.60;99.90;;;;;;5040799;28;20049;-80
2021/03/22 01:13:50;;;;;;;15.32;1.15;;;2.50;99.90;;;;;;5040841;28;20040;-81
2021/03/22 01:16:19;;;;;;;16.50;1.20;;;2.50;99.90;;;;;;5040604;28;20053;-80
2021/03/22 01:18:49;;;;;;;16.70;2.08;;;2.50;99.90;;;;;;5025673;28;20097;-79
2021/03/22 01:21:30;;;;;;;14.20;1.35;;;2.50;99.90;;;;;;5024171;28;20041;-80
2021/03/22 01:23:56;;;;;;;11.57;1.05;;;2.50;99.90;;;;;;5024297;28;20042;-80
2021/03/22 01:26:25;;;;;;;10.85;0.88;;;2.50;99.90;;;;;;5007691;28;20121;-80
2021/03/22 01:28:54;;;;;;;13.85;1.27;;;2.40;99.90;;;;;;5024301;28;20033;-80
2021/03/22 01:31:22;;;;;;;13.02;1.17;;;2.40;99.90;;;;;;5023862;28;20061;-81
2021/03/22 01:33:51;;;;;;;22.45;3.00;;;2.50;99.90;;;;;;5024459;28;20489;-80
2021/03/22 01:36:29;;;;;;;14.82;1.48;;;2.50;99.90;;;;;;5023631;28;20042;-80
2021/03/22 01:39:16;;;;;;;13.75;1.30;;;2.40;99.90;;;;;;5024118;28;20036;-81
2021/03/22 01:41:51;;;;;;;22.15;1.75;;;2.40;99.90;;;;;;5007098;28;20609;-80
2021/03/22 01:44:24;;;;;;;12.30;1.15;;;2.40;99.90;;;;;;5024001;28;20034;-81
2021/03/22 01:47:12;;;;;;;10.18;0.80;;;2.40;99.90;;;;;;5023731;28;20029;-80
2021/03/22 01:49:53;;;;;;;7.22;0.80;;;2.30;99.90;;;;;;5024089;28;20101;-80
2021/03/22 01:52:21;;;;;;;10.18;1.10;;;2.20;99.90;;;;;;5004453;28;20030;-80
2021/03/22 01:54:49;;;;;;;14.05;0.90;;;2.20;99.90;;;;;;5005613;28;20037;-80
2021/03/22 01:57:26;;;;;;;12.73;0.95;;;2.30;99.90;;;;;;5023309;28;20045;-80
2021/03/22 01:59:56;;;;;;;18.80;1.98;;;2.30;99.90;;;;;;5007707;28;20037;-80
2021/03/22 02:02:23;;;;;;;19.00;2.33;;;2.30;99.90;;;;;;5007469;28;20032;-80
2021/03/22 02:04:48;;;;;;;14.23;0.90;;;2.30;99.90;;;;;;5007639;28;20044;-80
2021/03/22 02:07:14;;;;;;;14.55;1.08;;;2.20;99.90;;;;;;5007677;28;20062;-80
2021/03/22 02:09:40;;;;;;;6.45;1.20;;;2.20;99.90;;;;;;5024290;28;20085;-80
2021/03/22 02:12:17;;;;;;;10.88;0.95;;;2.10;99.90;;;;;;5023833;28;20499;-80
2021/03/22 02:14:42;;;;;;;8.55;0.65;;;2.20;99.90;;;;;;5007776;28;20069;-80
2021/03/22 02:17:16;;;;;;;8.40;0.80;;;2.10;99.90;;;;;;5019942;28;20080;-80
2021/03/22 02:20:38;;;;;;;8.48;0.68;;;2.20;99.90;;;;;;5010850;28;20049;-80
2021/03/22 02:23:24;;;;;;;10.93;1.23;;;2.20;99.90;;;;;;4971817;28;20042;-80
2021/03/22 02:25:56;;;;;;;12.75;1.00;;;2.20;99.90;;;;;;5026963;28;20060;-81
2021/03/22 02:28:41;;;;;;;;;;;2.10;99.90;;;;;;5027413;28;20482;-80
2021/03/22 02:31:32;;;;;;;13.48;1.00;;;2.00;99.90;;;;;;5011192;28;19909;-80
2021/03/22 02:34:19;;;;;;;13.32;0.85;;;2.00;99.90;;;;;;5026560;28;20033;-80
2021/03/22 02:37:11;;;;;;;7.50;0.95;;;2.00;99.90;;;;;;5016191;28;20106;-80
2021/03/22 02:39:50;;;;;;;10.98;0.93;;;2.00;99.90;;;;;;5026585;28;20030;-80
2021/03/22 02:42:16;;;;;;;10.05;1.73;;;2.00;99.90;;;;;;5062374;23;20046;-80
2021/03/22 02:44:53;;;;;;;7.20;1.10;;;2.00;99.90;;;;;;5007572;28;20057;-81
2021/03/22 02:47:36;;;;;;;7.43;0.75;;;2.10;99.90;;;;;;5023942;28;20042;-81
2021/03/22 02:50:24;;;;;;;6.93;0.70;;;2.10;99.90;;;;;;5023822;28;20041;-80
2021/03/22 02:53:25;;;;;;;6.45;0.77;;;2.20;99.90;;;;;;5008451;28;20030;-80
2021/03/22 02:55:59;;;;;;;9.80;1.35;;;2.30;99.90;;;;;;5023206;28;20036;-81
2021/03/22 02:58:40;;;;;;;15.88;1.30;;;2.40;99.90;;;;;;5023262;28;20030;-80
2021/03/22 03:01:14;;;;;;;11.05;1.00;;;2.40;99.90;;;;;;5023296;28;20098;-81
2021/03/22 03:03:40;;;;;;;3.35;0.60;;;2.50;99.90;;;;;;5023136;28;20039;-80
2021/03/22 03:06:06;;;;;;;11.52;0.80;;;2.50;99.90;;;;;;5006321;28;20030;-81
2021/03/22 03:08:36;;;;;;;13.75;1.60;;;2.60;99.90;;;;;;5022857;28;20037;-81
2021/03/22 03:11:02;;;;;;;14.70;1.85;;;2.60;99.90;;;;;;5031044;23;20077;-81
2021/03/22 03:13:29;;;;;;;16.40;1.92;;;2.60;99.90;;;;;;5022912;28;20045;-81
2021/03/22 03:15:55;;;;;;;10.55;1.40;;;2.70;99.90;;;;;;5022594;28;20030;-81
2021/03/22 03:18:20;;;;;;;19.75;2.33;;;2.70;99.90;;;;;;5007476;28;20034;-81
2021/03/22 03:20:46;;;;;;;12.90;3.05;;;2.70;99.90;;;;;;5006332;28;20031;-81
2021/03/22 03:23:12;;;;;;;11.55;2.00;;;2.80;99.90;;;;;;5006430;28;20030;-80
2021/03/22 03:25:38;;;;;;;14.23;1.45;;;2.80;99.90;;;;;;5006514;28;20040;-80
2021/03/22 03:28:03;;;;;;;12.05;2.85;;;2.90;99.90;;;;;;5006110;28;20070;-81
2021/03/22 03:30:33;;;;;;;7.78;1.02;;;2.90;99.90;;;;;;5006221;28;20026;-81
2021/03/22 03:32:59;;;;;;;7.97;1.52;;;3.00;99.90;;;;;;5007325;28;20053;-81
2021/03/22 03:35:31;;;;;;;10.52;1.27;;;3.00;99.90;;;;;;4989829;28;20042;-81
2021/03/22 03:37:57;;;;;;;10.48;1.00;;;3.10;99.90;;;;;;5005997;28;20038;-81
2021/03/22 03:40:31;;;;;;;10.57;1.60;;;3.10;99.90;;;;;;4989964;28;20088;-81
2021/03/22 03:42:57;;;;;;;10.13;1.73;;;3.10;99.90;;;;;;5005929;28;20088;-81
2021/03/22 03:45:24;;;;;;;10.75;1.75;;;3.10;99.90;;;;;;5005891;28;20245;-81
2021/03/22 03:47:50;;;;;;;16.48;2.00;;;3.20;99.90;;;;;;5005755;28;20026;-81
2021/03/22 03:50:25;;;;;;;13.00;1.80;;;3.30;99.90;;;;;;5005720;28;20072;-81
2021/03/22 03:52:51;;;;;;;10.27;1.45;;;3.30;99.90;;;;;;5005804;28;20038;-81
2021/03/22 03:55:20;;;;;;;11.90;2.08;;;3.30;99.90;;;;;;5005749;28;20042;-82
2021/03/22 03:57:49;;;;;;;10.68;1.13;;;3.30;99.90;;;;;;5005629;28;20074;-81
2021/03/22 04:00:30;;;;;;;15.00;2.17;;;3.40;99.90;;;;;;5022184;28;20057;-81
2021/03/22 04:02:56;;;;;;;;;;;3.40;99.90;;;;;;5006104;28;20045;-81
2021/03/22 04:05:23;;;;;;;16.40;2.38;;;3.40;99.90;;;;;;5021697;28;19917;-81
2021/03/22 04:07:49;;;;;;;11.20;2.13;;;3.40;99.90;;;;;;5005390;28;20089;-81
2021/03/22 04:10:16;;;;;;;7.45;1.45;;;3.40;99.90;;;;;;5021828;28;20061;-81
2021/03/22 04:12:43;;;;;;;9.57;1.80;;;3.40;99.90;;;;;;5021600;28;20080;-81
2021/03/22 04:15:12;;;;;;;9.07;1.05;;;3.50;99.90;;;;;;5021812;28;20041;-81
2021/03/22 04:17:38;;;;;;;14.93;2.42;;;3.50;99.90;;;;;;5004958;28;20105;-81
2021/03/22 04:20:06;;;;;;;18.02;2.95;;;3.60;99.90;;;;;;5004550;28;20057;-81
2021/03/22 04:22:32;;;;;;;10.50;1.90;;;3.60;99.90;;;;;;5005102;28;20106;-81
2021/03/22 04:24:57;;;;;;;10.93;1.10;;;3.60;99.90;;;;;;4989048;28;20525;-81
2021/03/22 04:27:23;;;;;;;11.65;1.77;;;3.60;99.90;;;;;;5005230;28;20042;-81
2021/03/22 04:29:49;;;;;;;13.18;2.03;;;3.60;99.90;;;;;;5005259;28;20030;-82
2021/03/22 04:32:14;;;;;;;12.98;2.13;;;3.60;99.90;;;;;;4988898;28;20045;-81
2021/03/22 04:34:40;;;;;;;20.05;2.95;;;3.70;99.90;;;;;;5004925;28;20030;-81
2021/03/22 04:37:07;;;;;;;15.60;2.83;;;3.70;99.90;;;;;;5004858;28;20073;-82
2021/03/22 04:39:33;;;;;;;13.77;2.60;;;3.70;99.90;;;;;;5005132;28;20073;-81
2021/03/22 04:41:59;;;;;;;16.50;2.78;;;3.70;99.90;;;;;;4988734;28;20030;-81
2021/03/22 04:44:25;;;;;;;17.48;3.05;;;3.70;99.90;;;;;;5004874;28;20031;-82
2021/03/22 04:46:51;;;;;;;15.40;3.33;;;3.70;99.90;;;;;;5004961;28;20172;-81
2021/03/22 04:49:16;;;;;;;16.13;3.20;;;3.60;99.90;;;;;;4988763;28;20030;-82
2021/03/22 04:51:42;;;;;;;14.90;2.95;;;3.60;99.90;;;;;;5004720;28;20038;-82
2021/03/22 04:54:08;;;;;;;15.10;2.83;;;3.60;99.90;;;;;;5021251;28;20022;-82
2021/03/22 04:56:34;;;;;;;8.13;2.05;;;3.60;99.90;;;;;;5021046;28;20038;-81
2021/03/22 04:58:59;;;;;;;7.75;1.83;;;3.70;99.90;;;;;;5021221;28;20049;-82
2021/03/22 05:01:25;;;;;;;13.55;2.05;;;3.60;99.90;;;;;;5021228;28;20034;-81
2021/03/22 05:03:51;;;;;;;5.53;1.45;;;3.60;99.90;;;;;;5021087;28;20398;-81
2021/03/22 05:06:16;;;;;;;8.77;1.23;;;3.60;99.90;;;;;;5020862;28;20089;-81
2021/03/22 05:08:42;;;;;;;9.25;1.52;;;3.70;99.90;;;;;;5021109;28;20154;-81
2021/03/22 05:11:08;;;;;;;9.07;1.90;;;3.70;99.90;;;;;;5021001;28;20509;-82
2021/03/22 05:13:33;;;;;;;13.70;2.22;;;3.70;99.90;;;;;;5021132;28;20035;-81
2021/03/22 05:15:59;;;;;;;13.52;2.88;;;3.70;99.90;;;;;;5020574;28;20034;-82
2021/03/22 05:18:27;;;;;;;13.85;2.65;;;3.70;99.90;;;;;;5004926;28;20065;-82
2021/03/22 05:20:57;;;;;;;14.65;3.13;;;3.70;99.90;;;;;;4986070;28;20527;-81
2021/03/22 05:23:27;;;;;;;20.35;3.80;;;3.70;99.90;;;;;;5001555;28;20049;-82
2021/03/22 05:25:54;;;;;;;17.85;3.00;;;3.70;99.90;;;;;;5001200;28;20038;-82
2021/03/22 05:28:21;;;;;;;14.85;2.05;;;3.70;99.90;;;;;;4986468;28;20193;-82
2021/03/22 05:30:47;;;;;;;14.57;2.45;;;3.70;99.90;;;;;;5003973;28;20037;-81
2021/03/22 05:33:15;;;;;;;10.38;2.03;;;3.80;99.90;;;;;;4989011;28;20031;-82
2021/03/22 05:35:45;;;;;;;19.10;3.95;;;3.80;99.90;;;;;;5004631;28;20121;-82
2021/03/22 05:38:11;;;;;;;13.32;2.40;;;3.80;99.90;;;;;;5010356;28;20399;-82
2021/03/22 05:41:00;;;;;;;9.77;2.03;;;3.80;99.90;;;;;;5005033;28;20034;-81
2021/03/22 05:43:41;;;;;;;9.57;2.70;;;3.80;99.90;;;;;;5004901;28;20039;-82
2021/03/22 05:46:59;;;;;;;14.85;3.30;;;3.90;99.90;;;;;;5004984;28;20038;-81
2021/03/22 05:49:40;;;;;;;18.60;3.63;;;3.90;99.90;;;;;;4986118;28;20038;-82
2021/03/22 05:52:33;;;;;;;14.25;2.55;;;3.90;99.90;;;;;;5022738;28;20034;-82
2021/03/22 05:55:15;;;;;;;15.18;2.85;;;3.90;99.90;;;;;;5023755;28;20169;-82
2021/03/22 05:57:54;;;;;;;16.63;2.72;;;3.90;99.90;;;;;;5015411;28;20039;-83
2021/03/22 06:00:35;;;;;;;19.02;3.53;;;3.90;99.90;;;;;;5003270;28;20058;-82
2021/03/22 06:03:25;;;;;;;19.10;2.72;;;3.90;99.90;;;;;;4987572;28;20065;-83
2021/03/22 06:06:01;;;;;;;16.23;2.93;;;3.90;99.90;;;;;;5016236;28;20066;-81
2021/03/22 06:08:39;;;;;;;14.15;3.72;;;3.90;99.90;;;;;;5006681;28;20030;-82
2021/03/22 06:11:16;;;;;;;13.18;2.72;;;4.00;99.90;;;;;;5003276;28;20074;-82
2021/03/22 06:13:44;;;;;;;18.85;3.25;;;4.00;99.90;;;;;;4994931;28;20062;-82
2021/03/22 06:16:29;;;;;;;14.55;3.00;;;4.00;99.90;;;;;;5007363;28;20058;-82
2021/03/22 06:19:01;;;;;;;18.10;3.63;;;4.00;99.90;;;;;;4971213;28;20074;-82
2021/03/22 06:21:30;;;;;;;17.65;2.80;;;4.00;99.90;;;;;;5003386;28;20456;-82
2021/03/22 06:23:56;;;;;;;24.85;3.45;;;4.00;99.90;;;;;;5003409;28;20030;-82
2021/03/22 06:26:36;;;;;;;17.90;3.45;;;3.90;99.90;;;;;;5009446;28;20474;-82
2021/03/22 06:29:23;;;;;;;21.75;3.45;;;3.90;99.90;;;;;;5002104;28;20038;-82
2021/03/22 06:31:52;;;;;;;16.80;2.90;;;3.90;99.90;;;;;;5006443;28;20060;-82
2021/03/22 06:34:28;;;;;;;17.65;3.60;;;3.80;99.90;;;;;;5006856;28;20387;-82
2021/03/22 06:36:53;;;;;;;14.15;2.88;;;3.80;99.90;;;;;;4990227;28;20080;-81
2021/03/22 06:39:19;;;;;;;12.10;2.47;;;3.80;99.90;;;;;;4990313;28;20022;-81
2021/03/22 06:41:51;;;;;;;13.07;3.10;;;3.90;99.90;;;;;;5005666;28;20108;-82
2021/03/22 06:44:40;;;;;;;18.00;2.85;;;4.00;99.90;;;;;;4990055;28;20026;-82
2021/03/22 06:47:26;;;;;;;10.75;2.42;;;4.10;99.90;;;;;;4990041;28;20034;-83
2021/03/22 06:50:24;;;;;;;16.98;3.45;;;4.20;99.90;;;;;;4990402;28;20072;-82
2021/03/22 06:52:50;;;;;;;12.23;2.80;;;4.20;99.90;;;;;;4990246;28;20034;-82
2021/03/22 06:55:35;;;;;;;16.35;3.50;;;4.30;99.90;;;;;;4989818;28;20106;-82
2021/03/22 06:58:01;;;;;;;16.33;3.45;;;4.40;99.90;;;;;;5006147;28;20048;-83
2021/03/22 07:00:30;;;;;;;14.25;2.20;;;4.40;99.90;;;;;;4989676;28;20030;-82
2021/03/22 07:03:04;;;;;;;18.85;2.75;;;4.50;99.90;;;;;;4989902;28;20119;-83
2021/03/22 07:05:39;;;;;;;16.80;4.65;;;4.60;99.90;;;;;;4989957;28;20093;-83
2021/03/22 07:08:13;;;;;;;11.60;3.03;;;4.60;99.90;;;;;;4989735;28;20031;-82
2021/03/22 07:11:03;;;;;;;12.25;1.90;;;4.70;99.90;;;;;;5005685;28;20089;-84
2021/03/22 07:13:31;;;;;;;16.60;5.38;;;4.70;99.90;;;;;;4989864;28;20065;-83
2021/03/22 07:16:13;;;;;;;21.30;5.65;;;4.80;99.90;;;;;;4989389;28;20026;-83
2021/03/22 07:18:38;;;;;;;22.27;6.68;;;4.90;99.90;;;;;;5005846;28;20034;-83
2021/03/22 07:21:18;;;;;;;16.08;5.30;;;5.10;99.90;;;;;;5005698;28;20068;-83
2021/03/22 07:23:46;;;;;;;15.17;2.73;;;5.20;99.90;;;;;;5005951;28;20034;-83
2021/03/22 07:26:25;;;;;;;12.30;2.33;;;5.30;99.90;;;;;;5021894;28;20373;-82
2021/03/22 07:29:15;;;;;;;14.25;1.65;;;5.30;99.90;;;;;;5022183;28;20026;-83
2021/03/22 07:31:58;;;;;;;;;;;5.50;99.90;;;;;;5022538;28;20042;-83
2021/03/22 07:34:43;;;;;;;13.32;1.77;;;5.60;99.90;;;;;;4989309;28;19945;-83
2021/03/22 07:37:34;;;;;;;7.30;1.35;;;5.70;99.90;;;;;;5022039;28;20053;-83
2021/03/22 07:40:22;;;;;;;10.00;1.10;;;5.70;99.90;;;;;;5022300;28;20374;-83
2021/03/22 07:43:15;;;;;;;14.85;1.00;;;5.90;99.90;;;;;;5022017;28;20052;-83
2021/03/22 07:46:05;;;;;;;11.32;1.10;;;5.90;99.90;;;;;;5005330;28;20033;-83
2021/03/22 07:48:50;;;;;;;;;;;6.10;99.90;;;;;;5005914;28;20058;-83
2021/03/22 07:51:36;;;;;;;10.55;0.90;;;6.30;99.90;;;;;;4994461;28;19997;-83
2021/03/22 07:54:27;;;;;;;10.35;1.02;;;6.30;99.90;;;;;;4984486;28;20038;-82
2021/03/22 07:57:02;;;;;;;11.05;1.10;;;6.40;99.90;;;;;;5001687;28;20046;-83
2021/03/22 07:59:51;;;;;;;7.50;0.77;;;6.40;99.90;;;;;;4985470;28;20102;-83
2021/03/22 08:02:34;;;;;;;6.25;0.60;;;6.40;99.90;;;;;;4985580;28;20048;-83
2021/03/22 08:05:22;;;;;;;10.18;0.60;;;6.40;99.90;;;;;;5002850;28;20049;-83
2021/03/22 08:07:49;;;;;;;10.40;0.60;;;6.60;99.90;;;;;;4985558;28;20138;-83
2021/03/22 08:10:22;;;;;;;5.22;0.50;;;6.70;99.90;;;;;;4955506;28;20043;-83
2021/03/22 08:13:11;;;;;;;2.88;0.60;;;6.80;99.90;;;;;;4974534;28;20069;-83
2021/03/22 08:15:48;;;;;;;5.93;0.40;;;6.80;99.90;;;;;;4969721;28;20060;-82
2021/03/22 08:18:32;;;;;;;8.50;0.50;;;6.70;99.90;;;;;;4986400;28;20050;-83
2021/03/22 08:20:58;;;;;;;8.07;0.40;;;6.60;99.90;;;;;;5003007;28;20065;-82
2021/03/22 08:23:31;;;;;;;8.35;0.50;;;6.70;99.90;;;;;;4991177;28;20066;-83
2021/03/22 08:26:00;;;;;;;2.83;0.32;;;6.60;99.90;;;;;;4987345;28;20038;-83
2021/03/22 08:28:33;;;;;;;10.70;0.50;;;6.70;99.90;;;;;;4987474;28;20034;-83
2021/03/22 08:31:25;;;;;;;4.85;0.50;;;6.70;99.90;;;;;;4987517;28;20039;-82
2021/03/22 08:34:02;;;;;;;4.90;0.40;;;7.10;99.90;;;;;;4987600;28;20100;-83
2021/03/22 08:36:33;;;;;;;5.05;0.40;;;7.10;99.90;;;;;;4987014;28;20103;-84
2021/03/22 08:39:26;;;;;;;1.63;0.30;;;7.10;99.90;;;;;;5003449;28;20511;-84
2021/03/22 08:42:32;;;;;;;6.65;0.47;;;6.80;99.90;;;;;;5002660;28;20026;-83
2021/03/22 08:45:09;;;;;;;5.95;0.40;;;6.50;99.90;;;;;;4984337;28;20077;-83
2021/03/22 08:47:39;;;;;;;7.13;0.50;;;6.40;99.90;;;;;;5001452;28;20035;-84
2021/03/22 08:50:13;;;;;;;5.15;0.40;;;6.30;99.90;;;;;;5002766;28;20043;-83
2021/03/22 08:52:53;;;;;;;7.75;0.40;;;6.10;99.90;;;;;;5020941;28;20039;-83
2021/03/22 08:55:20;;;;;;;4.37;0.30;;;6.00;99.90;;;;;;5020930;28;20479;-84
2021/03/22 08:57:53;;;;;;;2.85;0.30;;;5.90;99.90;;;;;;5020941;28;20052;-84
2021/03/22 09:00:59;;;;;;;9.45;0.40;;;5.80;99.90;;;;;;5021186;28;20065;-83
2021/03/22 09:03:34;;;;;;;3.00;0.40;;;5.80;99.90;;;;;;4993091;28;20039;-84
2021/03/22 09:06:03;;;;;;;3.67;0.30;;;5.90;99.90;;;;;;5023641;28;20053;-84
2021/03/22 09:08:32;;;;;;;4.47;0.30;;;6.10;99.90;;;;;;5024833;28;20038;-84
2021/03/22 09:11:27;;;;;;;5.05;0.30;;;6.40;99.90;;;;;;5008181;28;20530;-85
2021/03/22 09:13:57;;;;;;;3.67;0.35;;;6.50;99.90;;;;;;5008017;28;20050;-84
2021/03/22 09:16:23;;;;;;;2.13;0.30;;;6.60;99.90;;;;;;5017972;28;20049;-84
2021/03/22 09:19:11;;;;;;;4.25;0.32;;;6.70;99.90;;;;;;5005136;28;20039;-84
2021/03/22 09:21:42;;;;;;;6.03;0.30;;;7.00;99.90;;;;;;4988480;28;20069;-84
2021/03/22 09:24:40;;;;;;;4.50;0.30;;;7.50;99.90;;;;;;5007641;28;20411;-84
2021/03/22 09:27:24;;;;;;;1.48;0.25;;;8.20;99.90;;;;;;5007758;28;20031;-83
2021/03/22 09:29:57;;;;;;;2.50;0.30;;;7.90;99.90;;;;;;5008038;28;20073;-84
2021/03/22 09:32:27;;;;;;;3.10;0.30;;;7.40;99.90;;;;;;5007868;28;20034;-83
2021/03/22 09:35:06;;;;;;;3.00;0.20;;;7.00;99.90;;;;;;5007711;28;20031;-84
2021/03/22 09:37:59;;;;;;;3.90;0.30;;;6.90;99.90;;;;;;5024288;28;20054;-84
2021/03/22 09:40:26;;;;;;;1.90;0.25;;;6.80;99.90;;;;;;5007033;28;20106;-85
2021/03/22 09:43:12;;;;;;;2.08;0.22;;;6.90;99.90;;;;;;5007388;28;20038;-84
2021/03/22 09:46:01;;;;;;;1.73;0.20;;;6.90;99.90;;;;;;5007705;28;20030;-84
2021/03/22 09:48:29;;;;;;;1.60;0.13;;;6.80;99.90;;;;;;5007623;28;20258;-84
2021/03/22 09:51:05;;;;;;;1.25;0.20;;;6.90;99.90;;;;;;5000145;28;20031;-84
2021/03/22 09:53:56;;;;;;;0.77;0.13;;;6.90;99.90;;;;;;5004689;28;20042;-84
2021/03/22 09:56:30;;;;;;;2.85;0.20;;;7.20;99.90;;;;;;5004245;28;20086;-84
2021/03/22 09:59:21;;;;;;;1.95;0.10;;;7.10;99.90;;;;;;5004691;28;20110;-84
2021/03/22 10:01:47;;;;;;;3.58;0.20;;;7.10;99.90;;;;;;5004387;28;20026;-84
2021/03/22 10:04:29;;;;;;;0.70;0.10;;;7.00;99.90;;;;;;5004185;28;20074;-84
2021/03/22 10:07:10;;;;;;;1.40;0.10;;;7.10;99.90;;;;;;5003880;28;20031;-83
2021/03/22 10:09:45;;;;;;;2.33;0.20;;;7.20;99.90;;;;;;5004083;28;20027;-84
2021/03/22 10:12:28;;;;;;;3.40;0.20;;;7.30;99.90;;;;;;5003934;28;20129;-84
2021/03/22 10:15:28;;;;;;;1.23;0.10;;;7.20;99.90;;;;;;5003795;28;20046;-83
2021/03/22 10:18:13;;;;;;;2.17;0.20;;;7.30;99.90;;;;;;5000850;28;20141;-84
2021/03/22 10:20:45;;;;;;;3.13;0.30;;;7.20;99.90;;;;;;4987782;28;20027;-83
2021/03/22 10:23:17;;;;;;;1.92;0.30;;;7.10;99.90;;;;;;4987399;28;20038;-84
2021/03/22 10:25:45;;;;;;;5.90;0.35;;;7.10;99.90;;;;;;5003684;28;20043;-84
2021/03/22 10:28:21;;;;;;;3.38;0.30;;;7.10;99.90;;;;;;4987412;28;20034;-83
2021/03/22 10:31:01;;;;;;;2.03;0.28;;;7.30;99.90;;;;;;4987268;28;20035;-84
2021/03/22 10:33:27;;;;;;;3.13;0.30;;;7.50;99.90;;;;;;4987303;28;20058;-84
2021/03/22 10:35:59;;;;;;;1.95;0.20;;;7.50;99.90;;;;;;4987196;28;20038;-83
2021/03/22 10:38:26;;;;;;;4.40;0.30;;;7.50;99.90;;;;;;4987146;28;20133;-84
2021/03/22 10:40:54;;;;;;;5.03;0.40;;;7.70;99.90;;;;;;5003420;28;20038;-84
2021/03/22 10:43:31;;;;;;;3.05;0.30;;;7.70;99.90;;;;;;4987133;28;20050;-84
2021/03/22 10:46:13;;;;;;;2.42;0.30;;;7.80;99.90;;;;;;5003370;28;20483;-84
2021/03/22 10:48:39;;;;;;;1.63;0.20;;;7.80;99.90;;;;;;5003537;28;20113;-84
2021/03/22 10:51:05;;;;;;;2.65;0.20;;;7.50;99.90;;;;;;4990257;28;20437;-84
2021/03/22 10:53:31;;;;;;;2.30;0.25;;;7.40;99.90;;;;;;5006716;28;20039;-84
2021/03/22 10:56:16;;;;;;;2.35;0.60;;;7.30;99.90;;;;;;5006443;28;20462;-83
2021/03/22 10:58:42;;;;;;;3.28;0.10;;;7.50;99.90;;;;;;5006308;28;20042;-84
2021/03/22 11:01:09;;;;;;;1.48;0.10;;;7.50;99.90;;;;;;5022557;28;20038;-83
2021/03/22 11:03:35;;;;;;;1.85;0.10;;;7.50;99.90;;;;;;5022562;28;20034;-84
2021/03/22 11:06:10;;;;;;;0.95;0.10;;;7.40;99.90;;;;;;5006057;28;20133;-84
2021/03/22 11:08:39;;;;;;;1.98;0.22;;;7.50;99.90;;;;;;5006204;28;20089;-84
2021/03/22 11:11:15;;;;;;;3.72;0.20;;;7.50;99.90;;;;;;5022467;28;20033;-83
2021/03/22 11:13:44;;;;;;;1.80;0.10;;;7.60;99.90;;;;;;5005688;28;20093;-83
2021/03/22 11:16:19;;;;;;;1.23;0.10;;;7.70;99.90;;;;;;5017197;28;20026;-84
2021/03/22 11:18:45;;;;;;;1.20;0.20;;;8.00;99.90;;;;;;5002919;28;20043;-84
2021/03/22 11:21:11;;;;;;;3.40;0.38;;;7.90;99.90;;;;;;4986177;28;20023;-84
2021/03/22 11:23:44;;;;;;;3.00;0.20;;;7.90;99.90;;;;;;4986534;28;20043;-84
2021/03/22 11:26:14;;;;;;;2.60;0.20;;;7.80;99.90;;;;;;5002563;28;20057;-84
2021/03/22 11:28:40;;;;;;;1.10;0.10;;;7.70;99.90;;;;;;4985957;28;20043;-84
2021/03/22 11:31:23;;;;;;;3.10;0.20;;;7.60;99.90;;;;;;4986233;28;20026;-84
2021/03/22 11:34:14;;;;;;;2.28;0.20;;;7.70;99.90;;;;;;4986251;28;20030;-84
2021/03/22 11:36:43;;;;;;;2.80;0.20;;;7.70;99.90;;;;;;4985892;28;20043;-84
2021/03/22 11:39:23;;;;;;;0.37;0.10;;;7.90;99.90;;;;;;5002440;28;20054;-84
2021/03/22 11:41:52;;;;;;;0.75;0.03;;;7.90;99.90;;;;;;5002303;28;20101;-84
2021/03/22 11:44:33;;;;;;;0.77;0.03;;;7.90;99.90;;;;;;4986153;28;20049;-84
2021/03/22 11:47:36;;;;;;;0.20;0.00;;;7.80;99.90;;;;;;5002212;28;20057;-84
2021/03/22 11:50:24;;;;;;;0.50;0.10;;;7.90;99.90;;;;;;5003258;28;20043;-83
2021/03/22 11:52:59;;;;;;;0.38;0.00;;;7.80;99.90;;;;;;5005034;28;20312;-84
2021/03/22 11:55:35;;;;;;;0.85;0.10;;;7.90;99.90;;;;;;5005049;28;20233;-83
2021/03/22 11:58:02;;;;;;;0.68;0.10;;;7.90;99.90;;;;;;5021751;28;20050;-83
2021/03/22 12:00:36;;;;;;;0.82;0.20;;;7.90;99.90;;;;;;5005142;28;20036;-83
2021/03/22 12:03:22;;;;;;;1.77;0.10;;;8.00;99.90;;;;;;5004984;28;20061;-83
2021/03/22 12:06:07;;;;;;;2.72;0.10;;;7.70;99.90;;;;;;4969037;28;20035;-83
2021/03/22 12:08:34;;;;;;;5.93;0.15;;;7.60;99.90;;;;;;4969634;28;20055;-83
2021/03/22 12:11:02;;;;;;;2.30;0.20;;;7.60;99.90;;;;;;4969366;28;20042;-83
2021/03/22 12:13:28;;;;;;;0.40;0.10;;;7.50;99.90;;;;;;4969241;28;20058;-84
2021/03/22 12:15:54;;;;;;;3.22;0.10;;;7.40;99.90;;;;;;4971298;28;20403;-83
2021/03/22 12:18:29;;;;;;;3.17;0.20;;;7.40;99.90;;;;;;5004802;28;20153;-84
2021/03/22 12:20:54;;;;;;;1.15;0.10;;;7.40;99.90;;;;;;5006234;28;20098;-83
2021/03/22 12:23:20;;;;;;;1.45;0.17;;;7.40;99.90;;;;;;5004722;28;20034;-83
2021/03/22 12:25:46;;;;;;;2.08;0.10;;;7.50;99.90;;;;;;5004707;28;20121;-83
2021/03/22 12:28:12;;;;;;;2.58;0.20;;;7.50;99.90;;;;;;5004670;28;20081;-83
2021/03/22 12:30:38;;;;;;;2.47;0.10;;;7.50;99.90;;;;;;5004496;28;20030;-83
2021/03/22 12:33:04;;;;;;;1.02;0.10;;;7.50;99.90;;;;;;5004561;28;20068;-84
2021/03/22 12:35:34;;;;;;;1.30;0.10;;;7.60;99.90;;;;;;5004280;28;20094;-83
2021/03/22 12:38:01;;;;;;;2.95;0.10;;;7.70;99.90;;;;;;5004297;28;20050;-83
2021/03/22 12:40:27;;;;;;;0.38;0.10;;;7.80;99.90;;;;;;5003557;28;20030;-83
2021/03/22 12:42:54;;;;;;;1.10;0.30;;;7.90;99.90;;;;;;5004416;28;20177;-83
2021/03/22 12:45:25;;;;;;;1.15;0.10;;;7.90;99.90;;;;;;5004487;28;20046;-83
2021/03/22 12:47:52;;;;;;;7.10;0.40;;;7.90;99.90;;;;;;5004551;28;20039;-84
2021/03/22 12:50:26;;;;;;;0.77;0.20;;;7.90;99.90;;;;;;5001298;28;20027;-83
2021/03/22 12:52:52;;;;;;;0.93;0.10;;;7.90;99.90;;;;;;5001052;28;20061;-83
2021/03/22 12:55:20;;;;;;;1.77;0.10;;;7.80;99.90;;;;;;4984691;28;20463;-82
2021/03/22 12:57:47;;;;;;;1.30;0.20;;;7.80;99.90;;;;;;4984798;28;20047;-83
2021/03/22 13:00:15;;;;;;;1.67;0.20;;;7.90;99.90;;;;;;4984894;28;20046;-84
2021/03/22 13:02:41;;;;;;;0.77;0.30;;;8.10;99.90;;;;;;4984912;28;20110;-82
2021/03/22 13:05:28;;;;;;;1.92;0.10;;;8.20;99.90;;;;;;5000747;28;20054;-84
2021/03/22 13:07:54;;;;;;;2.25;0.20;;;8.10;99.90;;;;;;4948273;29;20046;-83
2021/03/22 13:10:27;;;;;;;1.48;0.10;;;8.20;99.90;;;;;;4932238;29;20050;-83
2021/03/22 13:12:53;;;;;;;2.33;0.10;;;8.40;99.90;;;;;;4931950;29;20484;-84
2021/03/22 13:15:35;;;;;;;0.80;0.10;;;8.50;99.90;;;;;;4932149;29;20059;-83
2021/03/22 13:18:02;;;;;;;0.80;0.10;;;8.50;99.90;;;;;;4967483;28;20049;-84
2021/03/22 13:20:28;;;;;;;0.57;0.10;;;8.70;99.90;;;;;;4967295;28;20030;-83
2021/03/22 13:22:55;;;;;;;0.77;0.10;;;8.60;99.90;;;;;;4983409;28;20039;-84
2021/03/22 13:25:21;;;;;;;0.98;0.10;;;8.50;99.90;;;;;;4983281;28;20102;-84